Time;durP1;ratioP1;P1;durP2;ratioP2;P2;SDS_P1;SDS_P2;PMS_P1;PMS_P2;Temp;Humidity;BMP_temperature;BMP_pressure;BME280_temperature;BME280_humidity;BME280_pressure;Samples;Min_cycle;Max_cycle;Signal;HPM_P1;HPM_P2
2022/03/31 00:01:32;;;;;;;19.83;16.23;;;8.90;99.90;;;;;;5090686;28;20026;-78
2022/03/31 00:03:58;;;;;;;20.27;15.95;;;8.90;99.90;;;;;;5091414;28;20024;-79
2022/03/31 00:06:23;;;;;;;19.67;15.30;;;8.90;99.90;;;;;;5092863;28;20036;-79
2022/03/31 00:08:49;;;;;;;21.58;16.50;;;8.80;99.90;;;;;;5116077;28;20448;-79
2022/03/31 00:11:14;;;;;;;19.80;14.85;;;8.80;99.90;;;;;;5117279;28;20481;-80
2022/03/31 00:13:41;;;;;;;19.60;15.00;;;8.80;99.90;;;;;;5109377;28;20480;-79
2022/03/31 00:16:07;;;;;;;18.85;15.02;;;8.80;99.90;;;;;;5092062;28;20020;-78
2022/03/31 00:18:34;;;;;;;18.75;14.60;;;8.90;99.90;;;;;;5097746;28;20028;-80
2022/03/31 00:21:00;;;;;;;19.00;14.15;;;9.10;99.90;;;;;;5111621;28;20081;-80
2022/03/31 00:23:26;;;;;;;19.27;14.45;;;9.10;99.90;;;;;;5110251;28;20590;-78
2022/03/31 00:25:51;;;;;;;17.63;14.25;;;9.10;99.90;;;;;;5118427;28;20435;-80
2022/03/31 00:28:17;;;;;;;20.50;15.10;;;9.10;99.90;;;;;;5109559;28;20039;-79
2022/03/31 00:30:43;;;;;;;16.88;14.57;;;9.10;99.90;;;;;;5106612;28;20027;-77
2022/03/31 00:33:09;;;;;;;18.17;15.00;;;9.10;99.90;;;;;;5119520;28;20104;-79
2022/03/31 00:35:35;;;;;;;18.55;15.40;;;9.10;99.90;;;;;;5101048;28;20047;-80
2022/03/31 00:38:00;;;;;;;19.85;15.23;;;9.00;99.90;;;;;;5114603;28;20099;-78
2022/03/31 00:40:26;;;;;;;18.92;14.25;;;8.90;99.90;;;;;;5117210;28;20051;-80
2022/03/31 00:42:55;;;;;;;17.50;14.70;;;9.00;99.90;;;;;;5114303;28;20543;-79
2022/03/31 00:45:46;;;;;;;17.60;13.40;;;9.00;99.90;;;;;;5095239;28;20036;-78
2022/03/31 00:48:13;;;;;;;15.82;13.45;;;8.90;99.90;;;;;;5099609;28;20072;-78
2022/03/31 00:50:39;;;;;;;23.00;14.30;;;8.90;99.90;;;;;;5108627;28;20434;-78
2022/03/31 00:53:05;;;;;;;18.48;12.82;;;8.80;99.90;;;;;;5088754;28;20036;-78
2022/03/31 00:55:31;;;;;;;17.55;13.02;;;8.80;99.90;;;;;;5107690;28;20067;-79
2022/03/31 00:57:57;;;;;;;16.52;13.30;;;8.80;99.90;;;;;;5114318;28;20102;-78
2022/03/31 01:00:23;;;;;;;16.90;14.60;;;8.80;99.90;;;;;;5093395;28;20027;-79
2022/03/31 01:02:49;;;;;;;16.08;13.20;;;8.80;99.90;;;;;;5092782;28;20080;-79
2022/03/31 01:05:15;;;;;;;17.48;14.00;;;8.70;99.90;;;;;;5095278;28;20023;-79
2022/03/31 01:07:42;;;;;;;16.00;13.15;;;8.70;99.90;;;;;;5110837;28;20039;-79
2022/03/31 01:10:09;;;;;;;17.38;13.65;;;8.70;99.90;;;;;;5098401;28;20031;-79
2022/03/31 01:12:35;;;;;;;16.67;13.35;;;8.60;99.90;;;;;;5108826;28;20020;-79
2022/03/31 01:15:13;;;;;;;15.93;12.63;;;8.60;99.90;;;;;;5092061;28;20034;-78
2022/03/31 01:17:40;;;;;;;15.38;12.00;;;8.60;99.90;;;;;;5093051;28;20028;-78
2022/03/31 01:20:08;;;;;;;15.38;12.40;;;8.60;99.90;;;;;;5092471;28;20517;-79
2022/03/31 01:22:34;;;;;;;14.88;12.80;;;8.60;99.90;;;;;;5087594;28;20066;-79
2022/03/31 01:25:02;;;;;;;14.85;11.10;;;8.50;99.90;;;;;;5094687;28;20020;-79
2022/03/31 01:27:28;;;;;;;13.98;12.20;;;8.50;99.90;;;;;;5109348;28;20020;-79
2022/03/31 01:29:54;;;;;;;15.15;13.15;;;8.50;99.90;;;;;;5093734;28;20028;-79
2022/03/31 01:32:20;;;;;;;16.08;12.30;;;8.40;99.90;;;;;;5107786;28;20031;-79
2022/03/31 01:34:46;;;;;;;17.80;13.77;;;8.30;99.90;;;;;;5091872;28;20027;-77
2022/03/31 01:37:13;;;;;;;15.75;13.30;;;8.30;99.90;;;;;;5112922;28;20024;-78
2022/03/31 01:39:39;;;;;;;15.68;12.77;;;8.30;99.90;;;;;;5086533;28;20020;-78
2022/03/31 01:42:05;;;;;;;18.45;15.50;;;8.40;99.90;;;;;;5113465;28;20449;-79
2022/03/31 01:44:31;;;;;;;18.48;15.05;;;8.40;99.90;;;;;;5088554;28;20043;-79
2022/03/31 01:46:57;;;;;;;20.05;14.73;;;8.40;99.90;;;;;;5110264;28;20027;-79
2022/03/31 01:49:22;;;;;;;19.65;13.20;;;8.40;99.90;;;;;;5089159;28;20024;-78
2022/03/31 01:51:48;;;;;;;20.52;15.60;;;8.40;99.90;;;;;;5084759;28;20030;-78
2022/03/31 01:54:14;;;;;;;18.25;15.30;;;8.30;99.90;;;;;;5094117;28;20031;-78
2022/03/31 01:56:43;;;;;;;19.45;15.25;;;8.30;99.90;;;;;;5090913;28;20019;-79
2022/03/31 01:59:09;;;;;;;16.35;14.52;;;8.30;99.90;;;;;;5087243;28;20092;-79
2022/03/31 02:01:34;;;;;;;18.23;15.43;;;8.30;99.90;;;;;;5087615;28;20016;-77
2022/03/31 02:04:00;;;;;;;19.45;15.55;;;8.30;99.90;;;;;;5113318;28;20042;-79
2022/03/31 02:06:26;;;;;;;16.55;14.45;;;8.20;99.90;;;;;;5106624;28;20024;-78
2022/03/31 02:08:51;;;;;;;17.70;14.73;;;8.20;99.90;;;;;;5093265;28;20028;-79
2022/03/31 02:11:17;;;;;;;15.77;13.25;;;8.20;99.90;;;;;;5086324;28;20031;-78
2022/03/31 02:13:44;;;;;;;17.55;13.90;;;8.10;99.90;;;;;;5086663;28;20074;-79
2022/03/31 02:16:10;;;;;;;17.25;14.32;;;8.10;99.90;;;;;;5079877;28;20024;-79
2022/03/31 02:18:36;;;;;;;19.17;14.45;;;8.00;99.90;;;;;;5087070;28;20023;-78
2022/03/31 02:21:02;;;;;;;16.55;14.23;;;8.00;99.90;;;;;;5089148;28;20128;-78
2022/03/31 02:23:27;;;;;;;16.42;14.65;;;7.90;99.90;;;;;;5088327;28;20093;-78
2022/03/31 02:25:53;;;;;;;17.90;14.57;;;7.90;99.90;;;;;;5107285;28;20092;-79
2022/03/31 02:28:18;;;;;;;18.88;13.77;;;8.00;99.90;;;;;;5110690;28;20024;-79
2022/03/31 02:30:44;;;;;;;18.25;13.32;;;7.90;99.90;;;;;;5087780;28;20024;-79
2022/03/31 02:33:09;;;;;;;17.58;14.95;;;7.90;99.90;;;;;;5106262;28;20020;-79
2022/03/31 02:35:35;;;;;;;16.38;14.13;;;7.80;99.90;;;;;;5091557;28;20092;-79
2022/03/31 02:38:01;;;;;;;18.98;14.32;;;7.80;99.90;;;;;;5114565;28;20020;-79
2022/03/31 02:40:26;;;;;;;16.08;13.13;;;7.60;99.90;;;;;;5082673;28;20032;-78
2022/03/31 02:42:53;;;;;;;16.45;14.27;;;7.70;99.90;;;;;;5093476;28;20019;-79
2022/03/31 02:45:19;;;;;;;16.33;14.10;;;7.50;99.90;;;;;;5089779;28;20024;-79
2022/03/31 02:47:46;;;;;;;17.40;13.70;;;7.40;99.90;;;;;;5092495;28;20023;-78
2022/03/31 02:50:13;;;;;;;17.75;14.32;;;7.40;99.90;;;;;;5093290;28;20035;-78
2022/03/31 02:55:25;;;;;;;17.50;15.02;;;7.30;99.90;;;;;;5107303;28;20030;-78
2022/03/31 02:57:52;;;;;;;16.42;14.57;;;7.20;99.90;;;;;;5096435;28;20016;-79
2022/03/31 03:00:19;;;;;;;17.75;14.80;;;7.20;99.90;;;;;;5088303;28;20055;-78
2022/03/31 03:02:45;;;;;;;15.98;14.27;;;7.20;99.90;;;;;;5087788;28;20027;-78
2022/03/31 03:05:11;;;;;;;18.67;15.20;;;7.20;99.90;;;;;;5085592;28;20025;-79
2022/03/31 03:07:36;;;;;;;17.42;15.40;;;7.20;99.90;;;;;;5088251;28;20024;-78
2022/03/31 03:10:02;;;;;;;16.58;14.60;;;7.10;99.90;;;;;;5110784;28;20034;-79
2022/03/31 03:12:28;;;;;;;16.67;14.13;;;7.10;99.90;;;;;;5093659;28;20040;-79
2022/03/31 03:14:54;;;;;;;18.45;15.00;;;7.00;99.90;;;;;;5101443;28;20073;-79
2022/03/31 03:17:19;;;;;;;16.80;14.98;;;7.00;99.90;;;;;;5085854;28;20066;-80
2022/03/31 03:19:45;;;;;;;18.48;15.50;;;7.10;99.90;;;;;;5103082;28;20029;-79
2022/03/31 03:22:10;;;;;;;16.77;14.98;;;7.20;99.90;;;;;;5104872;28;20031;-80
2022/03/31 03:24:36;;;;;;;17.45;15.13;;;7.10;99.90;;;;;;5106412;28;20099;-78
2022/03/31 03:27:01;;;;;;;19.92;15.48;;;7.10;99.90;;;;;;5083215;28;20641;-79
2022/03/31 03:29:27;;;;;;;17.90;15.30;;;7.00;99.90;;;;;;5108827;28;20382;-78
2022/03/31 03:31:53;;;;;;;17.55;14.48;;;7.00;99.90;;;;;;5108837;28;20032;-79
2022/03/31 03:34:19;;;;;;;16.77;14.98;;;7.00;99.90;;;;;;5102167;28;20020;-78
2022/03/31 03:36:44;;;;;;;17.17;15.40;;;7.00;99.90;;;;;;5113572;28;20027;-79
2022/03/31 03:39:11;;;;;;;18.23;15.98;;;7.00;99.90;;;;;;5092021;28;20034;-80
2022/03/31 03:41:37;;;;;;;19.20;16.45;;;6.90;99.90;;;;;;5105166;28;20550;-78
2022/03/31 03:44:03;;;;;;;16.80;14.80;;;7.00;99.90;;;;;;5114627;28;20508;-79
2022/03/31 03:46:30;;;;;;;17.33;15.45;;;7.00;99.90;;;;;;5108137;28;20391;-79
2022/03/31 03:48:55;;;;;;;18.20;16.05;;;7.00;99.90;;;;;;5104096;28;20043;-79
2022/03/31 03:51:23;;;;;;;17.48;15.18;;;7.00;99.90;;;;;;5089272;28;20381;-79
2022/03/31 03:53:48;;;;;;;17.05;14.98;;;6.90;99.90;;;;;;5108316;28;20548;-79
2022/03/31 03:56:16;;;;;;;16.88;14.90;;;6.90;99.90;;;;;;5105800;28;20067;-79
2022/03/31 03:58:42;;;;;;;18.15;15.23;;;6.90;99.90;;;;;;5094081;28;20027;-78
2022/03/31 04:01:08;;;;;;;18.92;16.00;;;6.90;99.90;;;;;;5107641;28;20028;-79
2022/03/31 04:03:34;;;;;;;17.95;15.45;;;6.90;99.90;;;;;;5087129;28;20035;-80
2022/03/31 04:06:00;;;;;;;22.17;15.73;;;6.90;99.90;;;;;;5090081;28;20081;-80
2022/03/31 04:08:25;;;;;;;19.40;14.88;;;6.90;99.90;;;;;;5114054;28;20026;-78
2022/03/31 04:10:51;;;;;;;18.00;16.15;;;6.90;99.90;;;;;;5087952;28;20036;-78
2022/03/31 04:13:17;;;;;;;18.48;16.25;;;6.90;99.90;;;;;;5108470;28;20512;-79
2022/03/31 04:15:42;;;;;;;21.13;16.45;;;6.90;99.90;;;;;;5097305;28;20030;-78
2022/03/31 04:18:08;;;;;;;18.02;15.52;;;6.90;99.90;;;;;;5116827;28;20059;-79
2022/03/31 04:20:34;;;;;;;18.65;15.85;;;6.70;99.90;;;;;;5098545;28;20038;-78
2022/03/31 04:22:59;;;;;;;19.05;16.10;;;6.70;99.90;;;;;;5101011;28;20036;-79
2022/03/31 04:25:25;;;;;;;22.40;17.65;;;6.80;99.90;;;;;;5095283;28;20026;-79
2022/03/31 04:27:51;;;;;;;18.05;16.15;;;6.80;99.90;;;;;;5088535;28;20038;-79
2022/03/31 04:30:20;;;;;;;18.98;15.90;;;6.60;99.90;;;;;;5098192;28;20039;-79
2022/03/31 04:32:47;;;;;;;17.35;15.55;;;6.80;99.90;;;;;;5077592;28;20031;-78
2022/03/31 04:35:13;;;;;;;19.90;15.90;;;6.80;99.90;;;;;;5095758;28;20028;-80
2022/03/31 04:37:38;;;;;;;18.08;15.10;;;6.70;99.90;;;;;;5107899;28;20015;-81
2022/03/31 04:40:05;;;;;;;17.35;15.63;;;6.60;99.90;;;;;;5111835;28;20094;-78
2022/03/31 04:42:31;;;;;;;19.58;16.77;;;6.50;99.90;;;;;;5084747;28;20016;-78
2022/03/31 04:44:57;;;;;;;16.08;14.43;;;6.60;99.90;;;;;;5093724;28;20039;-80
2022/03/31 04:47:23;;;;;;;15.68;14.00;;;6.70;99.90;;;;;;5099749;28;20020;-79
2022/03/31 04:49:48;;;;;;;16.55;14.85;;;6.60;99.90;;;;;;5119914;28;20062;-78
2022/03/31 04:52:14;;;;;;;16.85;15.07;;;6.50;99.90;;;;;;5118439;28;20019;-77
2022/03/31 04:54:43;;;;;;;16.40;14.70;;;6.40;99.90;;;;;;5135324;28;20043;-76
2022/03/31 04:57:14;;;;;;;15.85;13.98;;;6.50;99.90;;;;;;5115575;28;20035;-77
2022/03/31 04:59:40;;;;;;;16.45;14.65;;;6.50;99.90;;;;;;5123591;28;20039;-81
2022/03/31 05:02:06;;;;;;;16.58;13.40;;;6.40;99.90;;;;;;5110646;28;20047;-79
2022/03/31 05:04:32;;;;;;;17.83;15.98;;;6.50;99.90;;;;;;5095201;28;20020;-80
2022/03/31 05:06:58;;;;;;;16.42;14.77;;;6.50;99.90;;;;;;5094173;28;20023;-78
2022/03/31 05:09:23;;;;;;;18.70;14.55;;;6.50;99.90;;;;;;5097299;28;20050;-79
2022/03/31 05:11:49;;;;;;;19.83;15.10;;;6.50;99.90;;;;;;5094823;28;20039;-79
2022/03/31 05:14:15;;;;;;;18.98;14.38;;;6.40;99.90;;;;;;5084398;28;20081;-78
2022/03/31 05:16:40;;;;;;;17.40;15.18;;;6.40;99.90;;;;;;5106643;28;20015;-79
2022/03/31 05:19:06;;;;;;;17.08;15.30;;;6.40;99.90;;;;;;5109836;28;20021;-78
2022/03/31 05:21:31;;;;;;;17.85;15.35;;;6.40;99.90;;;;;;5110442;28;20024;-80
2022/03/31 05:23:57;;;;;;;19.98;15.40;;;6.30;99.90;;;;;;5102647;28;20032;-81
2022/03/31 05:26:23;;;;;;;16.38;14.65;;;6.20;99.90;;;;;;5096191;28;20031;-77
2022/03/31 05:28:48;;;;;;;16.35;14.63;;;6.20;99.90;;;;;;5115275;28;20404;-78
2022/03/31 05:31:14;;;;;;;18.30;15.15;;;6.20;99.90;;;;;;5092900;28;20096;-78
2022/03/31 05:33:39;;;;;;;16.98;14.93;;;6.30;99.90;;;;;;5099506;28;20449;-78
2022/03/31 05:36:05;;;;;;;19.63;16.52;;;6.30;99.90;;;;;;5091912;28;20030;-78
2022/03/31 05:38:31;;;;;;;19.25;16.98;;;6.20;99.90;;;;;;5098475;28;20053;-79
2022/03/31 05:40:56;;;;;;;18.23;16.08;;;6.20;99.90;;;;;;5112530;28;20028;-80
2022/03/31 05:43:23;;;;;;;18.15;15.93;;;6.30;99.90;;;;;;5119515;28;20023;-78
2022/03/31 05:45:49;;;;;;;17.85;15.20;;;6.40;99.90;;;;;;5108692;28;20028;-78
2022/03/31 05:48:14;;;;;;;18.17;15.98;;;6.50;99.90;;;;;;5092460;28;20503;-79
2022/03/31 05:50:40;;;;;;;18.98;15.80;;;6.50;99.90;;;;;;5104062;28;20093;-80
2022/03/31 05:53:05;;;;;;;16.95;15.18;;;6.60;99.90;;;;;;5088913;28;20053;-78
2022/03/31 05:55:32;;;;;;;16.67;14.95;;;6.60;99.90;;;;;;5107627;28;20046;-79
2022/03/31 05:57:59;;;;;;;17.13;14.65;;;6.70;99.90;;;;;;5107687;28;20020;-79
2022/03/31 06:00:25;;;;;;;18.02;16.15;;;6.60;99.90;;;;;;5083116;28;20027;-79
2022/03/31 06:02:52;;;;;;;17.17;15.30;;;6.70;99.90;;;;;;5109073;28;20019;-79
2022/03/31 06:05:19;;;;;;;18.27;15.50;;;6.70;99.90;;;;;;5095232;28;20447;-80
2022/03/31 06:07:45;;;;;;;19.05;15.98;;;6.60;99.90;;;;;;5110994;28;20035;-79
2022/03/31 06:10:10;;;;;;;17.40;15.23;;;6.50;99.90;;;;;;5107957;28;20098;-80
2022/03/31 06:12:37;;;;;;;17.55;15.68;;;6.70;99.90;;;;;;5094830;28;20020;-78
2022/03/31 06:15:04;;;;;;;17.45;15.40;;;6.70;99.90;;;;;;5088444;28;20503;-78
2022/03/31 06:17:30;;;;;;;16.83;15.13;;;6.80;99.90;;;;;;5107623;28;20114;-79
2022/03/31 06:19:56;;;;;;;19.60;15.23;;;6.80;99.90;;;;;;5090444;28;20047;-79
2022/03/31 06:22:22;;;;;;;17.33;15.18;;;6.80;99.90;;;;;;5103063;28;20023;-80
2022/03/31 06:24:47;;;;;;;18.98;16.33;;;6.90;99.90;;;;;;5086301;28;20110;-78
2022/03/31 06:27:13;;;;;;;18.40;16.23;;;6.80;99.90;;;;;;5094834;28;20055;-79
2022/03/31 06:29:45;;;;;;;21.77;16.80;;;6.80;99.90;;;;;;5103754;28;20039;-79
2022/03/31 06:32:11;;;;;;;17.00;15.20;;;6.90;99.90;;;;;;5103934;28;20023;-78
2022/03/31 06:34:36;;;;;;;16.75;15.00;;;6.90;99.90;;;;;;5107539;28;20030;-80
2022/03/31 06:37:03;;;;;;;17.27;15.48;;;6.90;99.90;;;;;;5089215;28;20016;-80
2022/03/31 06:39:28;;;;;;;18.55;15.73;;;7.00;99.90;;;;;;5103928;28;20036;-78
2022/03/31 06:41:54;;;;;;;18.35;15.20;;;7.00;99.90;;;;;;5087105;28;20398;-79
2022/03/31 06:44:21;;;;;;;18.23;15.57;;;7.00;99.90;;;;;;5107986;28;20034;-78
2022/03/31 06:46:46;;;;;;;19.15;15.38;;;7.00;99.90;;;;;;5089245;28;20031;-79
2022/03/31 06:49:12;;;;;;;17.35;15.45;;;6.90;99.90;;;;;;5107710;28;20031;-78
2022/03/31 06:51:38;;;;;;;17.63;15.45;;;7.00;99.90;;;;;;5111574;28;20024;-80
2022/03/31 06:54:04;;;;;;;18.60;15.50;;;7.20;99.90;;;;;;5090214;28;20378;-80
2022/03/31 06:56:31;;;;;;;19.35;15.90;;;7.20;99.90;;;;;;5088274;28;20142;-78
2022/03/31 06:58:58;;;;;;;19.00;15.45;;;7.20;99.90;;;;;;5101309;28;20070;-78
2022/03/31 07:01:25;;;;;;;18.52;16.10;;;7.20;99.90;;;;;;5107839;28;20028;-80
2022/03/31 07:03:51;;;;;;;17.13;14.80;;;7.30;99.90;;;;;;5084278;28;20065;-78
2022/03/31 07:06:18;;;;;;;19.83;15.55;;;7.30;99.90;;;;;;5102632;28;20058;-79
2022/03/31 07:08:44;;;;;;;19.42;14.50;;;7.10;99.90;;;;;;5094319;28;20070;-78
2022/03/31 07:11:11;;;;;;;18.65;15.50;;;7.10;99.90;;;;;;5084068;28;20206;-77
2022/03/31 07:13:37;;;;;;;17.63;15.05;;;6.90;99.90;;;;;;5079785;28;20106;-77
2022/03/31 07:16:03;;;;;;;18.77;16.77;;;6.80;99.90;;;;;;5083899;28;20110;-78
2022/03/31 07:18:28;;;;;;;16.77;14.85;;;6.70;99.90;;;;;;5102418;28;20020;-78
2022/03/31 07:20:57;;;;;;;17.88;15.70;;;7.00;99.90;;;;;;5108096;28;20028;-79
2022/03/31 07:23:23;;;;;;;17.92;15.98;;;7.30;99.90;;;;;;5087810;28;20023;-77
2022/03/31 07:25:49;;;;;;;17.50;14.65;;;7.20;99.90;;;;;;5092992;28;20024;-79
2022/03/31 07:28:16;;;;;;;17.73;15.88;;;7.30;99.90;;;;;;5092025;28;20062;-78
2022/03/31 07:30:41;;;;;;;18.77;15.95;;;7.40;99.90;;;;;;5105164;28;20089;-78
2022/03/31 07:33:08;;;;;;;18.67;16.77;;;7.30;99.90;;;;;;5114844;28;20024;-81
2022/03/31 07:35:37;;;;;;;20.02;16.17;;;7.30;99.90;;;;;;5085552;28;20032;-79
2022/03/31 07:38:03;;;;;;;20.92;14.65;;;7.10;99.90;;;;;;5093956;28;20032;-80
2022/03/31 07:40:29;;;;;;;18.00;15.05;;;7.40;99.90;;;;;;5106117;28;20019;-80
2022/03/31 07:42:56;;;;;;;18.88;15.32;;;7.80;99.90;;;;;;5111021;28;20093;-78
2022/03/31 07:45:23;;;;;;;18.13;16.17;;;7.40;99.90;;;;;;5106781;28;20434;-79
2022/03/31 07:47:49;;;;;;;19.60;16.10;;;7.10;99.90;;;;;;5088625;28;20052;-79
2022/03/31 07:50:16;;;;;;;18.63;15.27;;;7.20;99.90;;;;;;5092883;28;20062;-79
2022/03/31 07:52:43;;;;;;;17.08;15.10;;;7.60;99.90;;;;;;5110943;28;20068;-78
2022/03/31 07:55:11;;;;;;;16.92;14.55;;;7.90;99.90;;;;;;5114633;28;20076;-79
2022/03/31 07:57:38;;;;;;;18.45;15.48;;;8.20;99.90;;;;;;5089571;28;20016;-79
2022/03/31 08:00:06;;;;;;;17.83;15.80;;;8.30;99.90;;;;;;5095595;28;20351;-78
2022/03/31 08:02:31;;;;;;;20.20;16.65;;;8.30;99.90;;;;;;5088531;28;20031;-79
2022/03/31 08:04:57;;;;;;;18.15;16.05;;;8.00;99.90;;;;;;5091583;28;20094;-80
2022/03/31 08:07:22;;;;;;;21.90;16.48;;;8.00;99.90;;;;;;5115328;28;20047;-79
2022/03/31 08:09:48;;;;;;;19.85;16.92;;;8.30;99.90;;;;;;5109635;28;20024;-79
2022/03/31 08:12:14;;;;;;;21.13;15.43;;;8.60;99.90;;;;;;5106021;28;20055;-78
2022/03/31 08:14:40;;;;;;;18.80;16.58;;;8.90;99.90;;;;;;5092763;28;20028;-79
2022/03/31 08:17:07;;;;;;;18.95;16.95;;;8.70;99.90;;;;;;5094730;28;20016;-80
2022/03/31 08:19:33;;;;;;;19.40;17.00;;;8.50;99.90;;;;;;5108031;28;20032;-80
2022/03/31 08:22:03;;;;;;;19.50;16.65;;;8.20;99.90;;;;;;5113592;28;20069;-78
2022/03/31 08:24:30;;;;;;;17.75;14.82;;;8.00;99.90;;;;;;5110826;28;20035;-79
2022/03/31 08:26:58;;;;;;;28.08;17.13;;;8.10;99.90;;;;;;5108964;28;20086;-78
2022/03/31 08:29:25;;;;;;;18.08;16.10;;;8.40;99.90;;;;;;5085447;28;20027;-79
2022/03/31 08:31:52;;;;;;;19.40;16.77;;;8.40;99.90;;;;;;5096450;28;20031;-79
2022/03/31 08:34:17;;;;;;;20.23;16.80;;;8.30;99.90;;;;;;5096535;28;20863;-78
2022/03/31 08:36:43;;;;;;;19.50;17.27;;;8.20;99.90;;;;;;5087235;28;20027;-79
2022/03/31 08:39:09;;;;;;;22.70;17.75;;;8.10;99.90;;;;;;5097068;28;20020;-79
2022/03/31 08:41:35;;;;;;;22.92;17.33;;;8.30;99.90;;;;;;5100947;28;20137;-80
2022/03/31 08:44:01;;;;;;;19.23;16.85;;;8.40;99.90;;;;;;5108856;28;20024;-79
2022/03/31 08:46:34;;;;;;;21.17;17.50;;;8.40;99.90;;;;;;5096901;28;20047;-78
2022/03/31 08:49:01;;;;;;;19.70;16.55;;;8.10;99.90;;;;;;5104622;28;20024;-79
2022/03/31 08:51:27;;;;;;;20.05;17.92;;;8.00;99.90;;;;;;5106172;28;20031;-79
2022/03/31 08:53:53;;;;;;;20.05;17.35;;;7.80;99.90;;;;;;5087799;28;20054;-78
2022/03/31 08:56:18;;;;;;;21.77;17.27;;;8.10;99.90;;;;;;5090034;28;20106;-78
2022/03/31 08:58:45;;;;;;;23.20;18.38;;;8.30;99.90;;;;;;5083040;28;20462;-81
2022/03/31 09:01:12;;;;;;;20.23;17.65;;;8.50;99.90;;;;;;5103592;28;20070;-80
2022/03/31 09:03:38;;;;;;;19.52;17.33;;;8.70;99.90;;;;;;5091506;28;20051;-78
2022/03/31 09:06:05;;;;;;;19.80;16.60;;;8.90;99.90;;;;;;5107856;28;20047;-80
2022/03/31 09:08:31;;;;;;;18.88;16.83;;;9.20;99.90;;;;;;5093818;28;20026;-80
2022/03/31 09:11:05;;;;;;;18.52;16.48;;;9.50;99.90;;;;;;5093378;28;20166;-80
2022/03/31 09:13:40;;;;;;;20.85;16.80;;;9.50;99.90;;;;;;5110305;28;20499;-78
2022/03/31 09:16:11;;;;;;;18.77;16.30;;;9.80;99.90;;;;;;5090279;28;20035;-79
2022/03/31 09:18:38;;;;;;;;;;;9.80;99.90;;;;;;5086791;28;20484;-80
2022/03/31 09:21:09;;;;;;;20.15;16.58;;;9.90;99.90;;;;;;5090911;28;20006;-79
2022/03/31 09:23:41;;;;;;;19.75;17.23;;;10.00;99.90;;;;;;5087755;28;20023;-79
2022/03/31 09:26:10;;;;;;;23.15;16.30;;;10.20;99.90;;;;;;5095649;28;20103;-79
2022/03/31 09:28:39;;;;;;;19.33;17.08;;;10.10;99.90;;;;;;5107347;28;20012;-81
2022/03/31 09:31:08;;;;;;;20.27;16.73;;;10.00;99.90;;;;;;5086334;28;20493;-79
2022/03/31 09:33:34;;;;;;;17.17;15.38;;;9.90;99.90;;;;;;5093522;28;20511;-81
2022/03/31 09:36:01;;;;;;;18.83;16.08;;;9.70;99.90;;;;;;5110443;28;20023;-79
2022/03/31 09:38:28;;;;;;;20.27;17.27;;;9.70;99.90;;;;;;5086506;28;20107;-80
2022/03/31 09:40:54;;;;;;;19.70;17.50;;;9.60;99.90;;;;;;5092630;28;20509;-79
2022/03/31 09:43:20;;;;;;;20.17;18.10;;;9.20;99.90;;;;;;5094883;28;20033;-79
2022/03/31 09:45:46;;;;;;;20.13;17.08;;;9.60;99.90;;;;;;5109733;28;20074;-78
2022/03/31 09:48:23;;;;;;;18.73;16.85;;;10.10;99.90;;;;;;5105373;28;20028;-81
2022/03/31 09:50:49;;;;;;;23.13;17.67;;;10.40;99.90;;;;;;5107419;28;20046;-77
2022/03/31 09:53:16;;;;;;;18.40;16.48;;;10.90;99.90;;;;;;5108867;28;20040;-76
2022/03/31 09:55:43;;;;;;;21.75;17.17;;;11.10;99.90;;;;;;5098208;28;20016;-77
2022/03/31 09:58:12;;;;;;;19.98;16.85;;;11.10;99.90;;;;;;5108914;28;20087;-78
2022/03/31 10:00:38;;;;;;;22.25;18.60;;;10.70;99.90;;;;;;5101477;28;20032;-77
2022/03/31 10:03:05;;;;;;;18.35;16.35;;;10.50;99.90;;;;;;5108260;28;20020;-78
2022/03/31 10:05:32;;;;;;;20.85;17.75;;;11.00;99.90;;;;;;5100768;28;20142;-77
2022/03/31 10:07:59;;;;;;;19.65;17.63;;;11.80;99.90;;;;;;5088101;28;20095;-77
2022/03/31 10:10:27;;;;;;;20.67;16.70;;;11.70;99.90;;;;;;5083321;28;20028;-74
2022/03/31 10:13:03;;;;;;;19.38;17.20;;;11.80;99.90;;;;;;5087789;28;20039;-77
2022/03/31 10:15:35;;;;;;;19.92;17.38;;;11.80;99.90;;;;;;5092743;28;20489;-77
2022/03/31 10:18:01;;;;;;;19.63;16.98;;;11.90;99.90;;;;;;5113100;28;20557;-76
2022/03/31 10:20:27;;;;;;;18.27;16.38;;;12.60;99.90;;;;;;5106994;28;20024;-78
2022/03/31 10:25:42;;;;;;;19.60;17.58;;;12.60;99.90;;;;;;5101293;28;20022;-77
2022/03/31 10:28:21;;;;;;;18.73;16.73;;;12.30;99.90;;;;;;5082763;28;20031;-77
2022/03/31 10:30:57;;;;;;;20.27;18.08;;;11.70;99.90;;;;;;5103984;28;20015;-77
2022/03/31 10:33:44;;;;;;;20.40;18.20;;;12.00;99.90;;;;;;5086071;28;20050;-77
2022/03/31 10:36:13;;;;;;;19.30;17.20;;;11.20;99.90;;;;;;5088176;28;20504;-80
2022/03/31 10:38:56;;;;;;;19.92;17.92;;;11.00;99.90;;;;;;5079405;28;20027;-77
2022/03/31 10:41:29;;;;;;;20.27;17.73;;;11.40;99.90;;;;;;5104751;28;20019;-78
2022/03/31 10:43:58;;;;;;;21.40;17.17;;;11.10;99.90;;;;;;5107997;28;20032;-81
2022/03/31 10:46:25;;;;;;;22.95;18.13;;;10.90;99.90;;;;;;5087497;28;20053;-80
2022/03/31 10:48:56;;;;;;;20.40;17.90;;;11.00;99.90;;;;;;5081736;28;20035;-79
2022/03/31 10:51:32;;;;;;;20.05;17.92;;;11.50;99.90;;;;;;5104241;28;20169;-80
2022/03/31 10:53:59;;;;;;;20.42;18.15;;;11.00;99.90;;;;;;5107160;28;20063;-79
2022/03/31 10:56:27;;;;;;;18.63;16.63;;;11.30;99.90;;;;;;5109314;28;20061;-79
2022/03/31 10:58:59;;;;;;;21.25;18.85;;;11.30;99.90;;;;;;5113416;28;20033;-81
2022/03/31 11:01:30;;;;;;;22.33;18.58;;;11.60;99.90;;;;;;5088050;28;20137;-80
2022/03/31 11:04:01;;;;;;;23.48;19.02;;;11.90;99.90;;;;;;5086337;28;20032;-80
2022/03/31 11:06:28;;;;;;;20.42;17.83;;;12.00;99.90;;;;;;5109657;28;20023;-79
2022/03/31 11:08:54;;;;;;;21.23;18.52;;;12.20;99.90;;;;;;5084459;28;20032;-81
2022/03/31 11:11:27;;;;;;;24.25;18.70;;;11.70;99.90;;;;;;5089061;28;20024;-77
2022/03/31 11:13:55;;;;;;;22.92;18.25;;;11.30;99.90;;;;;;5092344;28;20110;-80
2022/03/31 11:16:22;;;;;;;23.67;19.08;;;11.90;99.90;;;;;;5101284;28;20019;-79
2022/03/31 11:18:59;;;;;;;21.48;17.02;;;11.50;99.90;;;;;;5107286;28;20012;-77
2022/03/31 11:21:36;;;;;;;21.33;17.85;;;11.90;99.90;;;;;;5105015;28;20023;-81
2022/03/31 11:24:03;;;;;;;24.55;19.55;;;11.90;99.90;;;;;;5094539;28;20127;-78
2022/03/31 11:26:32;;;;;;;24.45;20.40;;;11.50;99.90;;;;;;5103997;28;20106;-79
2022/03/31 11:28:59;;;;;;;25.65;21.55;;;10.90;99.90;;;;;;5082414;28;20056;-78
2022/03/31 11:31:25;;;;;;;20.25;18.02;;;10.80;99.90;;;;;;5090447;28;20023;-78
2022/03/31 11:33:51;;;;;;;26.23;18.88;;;11.10;99.90;;;;;;5107611;28;20028;-79
2022/03/31 11:36:18;;;;;;;25.80;19.83;;;11.60;99.90;;;;;;5089620;28;20030;-78
2022/03/31 11:38:54;;;;;;;22.92;18.50;;;11.60;99.90;;;;;;5109507;28;20016;-79
2022/03/31 11:41:20;;;;;;;23.77;17.40;;;11.30;99.90;;;;;;5084470;28;20021;-79
2022/03/31 11:43:46;;;;;;;21.17;17.95;;;11.80;99.90;;;;;;5112103;28;20023;-80
2022/03/31 11:46:11;;;;;;;22.95;17.02;;;11.70;99.90;;;;;;5092957;28;20512;-78
2022/03/31 11:48:41;;;;;;;21.50;17.17;;;11.80;99.90;;;;;;5104923;28;20020;-79
2022/03/31 11:51:09;;;;;;;20.30;17.93;;;11.80;99.90;;;;;;5095814;28;20451;-79
2022/03/31 11:53:47;;;;;;;21.27;18.17;;;11.30;99.90;;;;;;5089578;28;20081;-79
2022/03/31 11:56:26;;;;;;;19.70;16.95;;;11.00;99.90;;;;;;5091536;28;20035;-79
2022/03/31 11:58:55;;;;;;;20.77;18.48;;;11.20;99.90;;;;;;5128138;28;20079;-77
2022/03/31 12:01:43;;;;;;;21.30;17.48;;;11.40;99.90;;;;;;5132043;28;20016;-77
2022/03/31 12:04:19;;;;;;;21.25;16.85;;;11.80;99.90;;;;;;5136987;28;20325;-76
2022/03/31 12:06:50;;;;;;;19.52;16.48;;;12.30;99.90;;;;;;5132197;28;20031;-78
2022/03/31 12:09:15;;;;;;;21.13;16.38;;;12.20;99.90;;;;;;5134069;28;20608;-79
2022/03/31 12:11:42;;;;;;;20.38;16.88;;;12.00;99.90;;;;;;5105353;28;20081;-81
2022/03/31 12:14:10;;;;;;;22.58;16.33;;;12.20;99.90;;;;;;5092224;28;20500;-77
2022/03/31 12:17:12;;;;;;;22.42;16.35;;;12.20;99.90;;;;;;5094323;28;20039;-79
2022/03/31 12:19:40;;;;;;;19.80;16.73;;;11.90;99.90;;;;;;5064376;28;20040;-78
2022/03/31 12:22:06;;;;;;;18.60;15.77;;;11.80;99.90;;;;;;5086657;28;20028;-78
2022/03/31 12:24:32;;;;;;;24.67;17.73;;;11.80;99.90;;;;;;5088241;28;20080;-78
2022/03/31 12:27:02;;;;;;;19.00;15.88;;;11.90;99.90;;;;;;5094372;28;20032;-77
2022/03/31 12:29:33;;;;;;;19.73;16.63;;;11.90;99.90;;;;;;5104753;28;20103;-79
2022/03/31 12:32:06;;;;;;;23.15;16.15;;;12.10;99.90;;;;;;5099007;28;20402;-79
2022/03/31 12:34:34;;;;;;;19.77;16.33;;;12.50;99.90;;;;;;5096773;28;20023;-78
2022/03/31 12:37:00;;;;;;;19.15;15.88;;;12.60;99.90;;;;;;5091665;28;20019;-80
2022/03/31 12:39:27;;;;;;;20.83;17.27;;;12.50;99.90;;;;;;5114014;28;20087;-78
2022/03/31 12:41:54;;;;;;;19.20;16.48;;;11.90;99.90;;;;;;5108589;28;20056;-79